KMUO/MUO METAR and TAF weather

Enter ICAO airport designator
Station Type Date Time Source
KMUO METAR 2021/07/29 17:58 UTC NOAA

KMUO 291758Z AUTO 18003KT 10SM FEW200 32/12 A3011 RMK AO2 SLP162 T03180115 10318 20194 58002 $


Station Type Date Time Source
KMUO Decoded METAR 2021/07/29 17:58 UTC NOAA

Mountain Home Air Force Base, ID, United States (KMUO) 43-03N 115-52W
Jul 29, 2021 - 01:58 PM EDT / 2021.07.29 1758 UTC
Wind: from the S (180 degrees) at 3 MPH (3 KT):0
Visibility: 10 mile(s):0
Sky conditions: mostly clear
Temperature: 89.2 F (31.8 C)
Dew Point: 52.7 F (11.5 C)
Relative Humidity: 28%
Pressure (altimeter): 30.11 in. Hg (1019 hPa)
Pressure tendency: 0.01 inches (0.2 hPa) lower than three hours ago
ob: KMUO 291758Z AUTO 18003KT 10SM FEW200 32/12 A3011 RMK AO2 SLP162 T03180115 10318 20194 58002
cycle: 18

Station Type Date Time Source
KMUO TAF 2021/07/29 10:09 UTC NOAA

TAF TAF KMUO 291000Z 2910/3016 10009KT 9000 FU SCT140 SCT220 QNH3004INS
BECMG 2918/2919 33009KT 9000 FU SCT140 BKN200 QNH2996INS
BECMG 2922/2923 33012G18KT 9000 FU SCT150 BKN200 QNH2995INS
BECMG 3004/3005 VRB06KT 9000 FU FEW120 SCT180 QNH2997INS TX37/2923Z TN17/2913Z

Example: see airport list